createdAt,value
2019-02-28T00:00:46.364Z,22.17
2019-02-28T00:01:31.484Z,23.10
2019-02-28T00:02:10.814Z,22.37
2019-02-28T00:02:46.207Z,22.37
2019-02-28T00:03:21.872Z,23.90
2019-02-28T00:03:58.311Z,23.73
2019-02-28T00:04:34.444Z,23.87
2019-02-28T00:05:09.822Z,21.77
2019-02-28T00:05:45.234Z,23.37
2019-02-28T00:06:21.029Z,25.47
2019-02-28T00:06:56.409Z,23.87
2019-02-28T00:07:31.795Z,20.90
2019-02-28T00:08:07.286Z,22.80
2019-02-28T00:08:42.942Z,22.10
2019-02-28T00:09:18.679Z,22.90
2019-02-28T00:09:57.340Z,21.33
2019-02-28T00:10:31.695Z,20.93
2019-02-28T00:11:07.357Z,20.60
2019-02-28T00:11:42.760Z,23.47
2019-02-28T00:12:18.451Z,18.73
2019-02-28T00:12:53.843Z,23.10
2019-02-28T00:13:29.237Z,19.93
2019-02-28T00:14:04.641Z,22.77
2019-02-28T00:14:40.107Z,19.37
2019-02-28T00:15:15.536Z,22.17
2019-02-28T00:15:50.959Z,20.13
2019-02-28T00:16:26.359Z,19.93
2019-02-28T00:17:02.047Z,20.50
2019-02-28T00:17:42.760Z,20.50
2019-02-28T00:18:15.542Z,20.93
2019-02-28T00:18:52.302Z,22.30
2019-02-28T00:19:27.706Z,18.53
2019-02-28T00:20:06.392Z,19.03
2019-02-28T00:20:41.782Z,19.20
2019-02-28T00:21:17.315Z,21.63
2019-02-28T00:21:52.994Z,22.03
2019-02-28T00:22:28.408Z,19.60
2019-02-28T00:23:04.161Z,22.87
2019-02-28T00:23:39.661Z,20.30
2019-02-28T00:24:15.063Z,24.00
2019-02-28T00:24:50.486Z,21.40
2019-02-28T00:25:25.908Z,18.50
2019-02-28T00:26:01.887Z,20.00
2019-02-28T00:26:37.291Z,24.47
2019-02-28T00:27:12.970Z,20.20
2019-02-28T00:27:48.585Z,19.60
2019-02-28T00:28:25.935Z,21.57
2019-02-28T00:29:01.466Z,21.63
2019-02-28T00:29:36.865Z,20.37
2019-02-28T00:30:12.683Z,21.47
2019-02-28T00:30:48.071Z,20.60
2019-02-28T00:31:23.744Z,19.87
2019-02-28T00:31:59.138Z,21.63
2019-02-28T00:32:34.537Z,19.40
2019-02-28T00:33:09.927Z,19.73
2019-02-28T00:33:45.817Z,19.87
2019-02-28T00:34:21.248Z,21.27
2019-02-28T00:34:57.249Z,20.30
2019-02-28T00:35:32.902Z,20.40
2019-02-28T00:36:08.628Z,20.70
2019-02-28T00:36:44.034Z,20.80
2019-02-28T00:37:19.459Z,21.73
2019-02-28T00:37:56.674Z,19.97
2019-02-28T00:38:32.245Z,22.60
2019-02-28T00:39:07.747Z,22.13
2019-02-28T00:39:43.395Z,20.83
2019-02-28T00:40:19.104Z,19.07
2019-02-28T00:40:54.532Z,20.27
2019-02-28T00:41:29.945Z,19.33
2019-02-28T00:42:05.697Z,18.57
2019-02-28T00:42:41.355Z,22.37
2019-02-28T00:43:16.766Z,23.67
2019-02-28T00:43:56.857Z,19.53
2019-02-28T00:44:31.442Z,18.80
2019-02-28T00:45:07.369Z,20.20
2019-02-28T00:45:42.781Z,22.93
2019-02-28T00:46:18.263Z,18.33
2019-02-28T00:46:53.920Z,19.60
2019-02-28T00:47:29.596Z,17.90
2019-02-28T00:48:05.004Z,18.03
2019-02-28T00:48:40.437Z,18.67
2019-02-28T00:49:15.946Z,19.63
2019-02-28T00:49:51.380Z,17.17
2019-02-28T00:50:27.822Z,21.90
2019-02-28T00:51:03.930Z,21.00
2019-02-28T00:51:39.372Z,17.63
2019-02-28T00:52:15.025Z,20.40
2019-02-28T00:52:50.427Z,22.27
2019-02-28T00:53:26.085Z,24.50
2019-02-28T00:54:01.543Z,19.57
2019-02-28T00:54:42.981Z,22.13
2019-02-28T00:55:15.507Z,21.17
2019-02-28T00:55:51.279Z,18.27
2019-02-28T00:56:26.714Z,27.07
2019-02-28T00:57:02.437Z,21.70
2019-02-28T00:57:37.845Z,17.07
2019-02-28T00:58:13.241Z,21.93
2019-02-28T00:58:48.731Z,21.43
2019-02-28T00:59:24.110Z,19.47
2019-02-28T01:00:04.870Z,19.27
2019-02-28T01:00:38.180Z,22.63
2019-02-28T01:01:13.587Z,20.77
2019-02-28T01:01:49.288Z,17.43
2019-02-28T01:02:24.835Z,21.13
2019-02-28T01:03:00.541Z,18.77
2019-02-28T01:03:36.253Z,17.27
2019-02-28T01:04:11.904Z,20.13
2019-02-28T01:04:47.328Z,21.10
2019-02-28T01:05:22.809Z,19.93
2019-02-28T01:05:58.560Z,22.10
2019-02-28T01:06:35.426Z,18.80
2019-02-28T01:07:13.266Z,17.80
2019-02-28T01:07:48.949Z,17.73
2019-02-28T01:08:24.588Z,18.27
2019-02-28T01:09:00.121Z,20.13
2019-02-28T01:09:35.647Z,18.87
2019-02-28T01:10:11.825Z,18.47
2019-02-28T01:10:47.483Z,18.77
2019-02-28T01:11:23.144Z,22.40
2019-02-28T01:11:59.212Z,17.23
2019-02-28T01:12:34.848Z,17.30
2019-02-28T01:13:10.382Z,18.07
2019-02-28T01:13:46.040Z,23.47
2019-02-28T01:14:21.847Z,21.93
2019-02-28T01:14:57.273Z,19.23
2019-02-28T01:15:33.030Z,19.20
2019-02-28T01:16:08.405Z,19.27
2019-02-28T01:16:43.882Z,22.10
2019-02-28T01:17:19.545Z,21.17
2019-02-28T01:17:57.218Z,20.23
2019-02-28T01:18:34.462Z,18.50
2019-02-28T01:19:10.170Z,17.77
2019-02-28T01:19:45.688Z,20.87
2019-02-28T01:20:21.196Z,18.70
2019-02-28T01:20:56.605Z,22.57
2019-02-28T01:21:32.051Z,21.27
2019-02-28T01:22:07.443Z,17.23
2019-02-28T01:22:42.839Z,21.13
2019-02-28T01:23:18.533Z,23.77
2019-02-28T01:23:53.907Z,20.83
2019-02-28T01:24:34.521Z,17.83
2019-02-28T01:25:07.365Z,21.73
2019-02-28T01:25:42.781Z,19.53
2019-02-28T01:26:18.448Z,19.87
2019-02-28T01:26:53.847Z,19.73
2019-02-28T01:27:29.351Z,19.57
2019-02-28T01:28:04.754Z,19.33
2019-02-28T01:28:40.178Z,20.50
2019-02-28T01:29:15.912Z,16.17
2019-02-28T01:29:51.305Z,19.47
2019-02-28T01:30:27.131Z,19.83
2019-02-28T01:31:02.545Z,21.90
2019-02-28T01:31:38.191Z,20.07
2019-02-28T01:32:15.651Z,24.33
2019-02-28T01:32:51.111Z,21.17
2019-02-28T01:33:26.524Z,18.40
2019-02-28T01:34:02.286Z,21.13
2019-02-28T01:34:37.684Z,20.87
2019-02-28T01:35:13.090Z,16.90
2019-02-28T01:35:48.508Z,22.10
2019-02-28T01:36:24.172Z,22.03
2019-02-28T01:36:59.861Z,21.63
2019-02-28T01:37:35.262Z,22.40
2019-02-28T01:38:10.654Z,19.97
2019-02-28T01:38:46.092Z,22.07
2019-02-28T01:39:21.749Z,21.57
2019-02-28T01:39:57.146Z,21.53
2019-02-28T01:40:35.128Z,26.53
2019-02-28T01:41:11.175Z,25.27
2019-02-28T01:41:47.152Z,22.97
2019-02-28T01:42:22.544Z,19.77
2019-02-28T01:42:57.958Z,23.77
2019-02-28T01:43:33.354Z,21.30
2019-02-28T01:44:08.755Z,18.57
2019-02-28T01:44:44.444Z,22.17
2019-02-28T01:45:19.856Z,21.70
2019-02-28T01:45:55.598Z,22.73
2019-02-28T01:46:31.356Z,23.23
2019-02-28T01:47:06.763Z,21.27
2019-02-28T01:47:42.584Z,24.40
2019-02-28T01:48:18.069Z,23.97
2019-02-28T01:48:54.538Z,21.63
2019-02-28T01:49:30.529Z,23.13
2019-02-28T01:50:06.365Z,20.20
2019-02-28T01:50:42.028Z,20.53
2019-02-28T01:51:17.425Z,21.20
2019-02-28T01:51:53.507Z,22.07
2019-02-28T01:52:28.969Z,21.27
2019-02-28T01:53:04.363Z,19.37
2019-02-28T01:53:39.787Z,20.13
2019-02-28T01:54:15.459Z,24.53
2019-02-28T01:54:50.859Z,22.23
2019-02-28T01:55:29.382Z,26.30
2019-02-28T01:56:03.453Z,26.13
2019-02-28T01:56:39.121Z,24.17
2019-02-28T01:57:14.840Z,24.57
2019-02-28T01:57:50.251Z,22.53
2019-02-28T01:58:26.236Z,20.17
2019-02-28T01:59:01.935Z,23.07
2019-02-28T01:59:37.341Z,22.80
2019-02-28T02:00:14.460Z,25.53
2019-02-28T02:00:49.880Z,21.67
2019-02-28T02:01:25.290Z,25.40
2019-02-28T02:02:05.703Z,21.87
2019-02-28T02:02:38.973Z,22.03
2019-02-28T02:03:14.471Z,23.00
2019-02-28T02:03:49.869Z,23.13
2019-02-28T02:04:25.583Z,24.30
2019-02-28T02:05:01.033Z,25.10
2019-02-28T02:05:36.682Z,20.53
2019-02-28T02:06:12.133Z,22.67
2019-02-28T02:06:48.897Z,25.13
2019-02-28T02:07:24.555Z,24.50
2019-02-28T02:08:00.046Z,24.10
2019-02-28T02:08:37.814Z,22.77
2019-02-28T02:09:12.913Z,22.07
2019-02-28T02:09:48.406Z,24.73
2019-02-28T02:10:24.086Z,23.40
2019-02-28T02:10:59.523Z,25.13
2019-02-28T02:11:34.911Z,22.10
2019-02-28T02:12:10.619Z,24.67
2019-02-28T02:12:46.264Z,23.37
2019-02-28T02:13:21.671Z,24.37
2019-02-28T02:13:57.426Z,23.97
2019-02-28T02:14:32.847Z,23.83
2019-02-28T02:15:08.870Z,22.40
2019-02-28T02:15:44.283Z,23.27
2019-02-28T02:16:19.720Z,26.27
2019-02-28T02:16:55.125Z,22.20
2019-02-28T02:17:32.229Z,24.03
2019-02-28T02:18:09.324Z,26.23
2019-02-28T02:18:44.849Z,22.43
2019-02-28T02:19:20.255Z,25.53
2019-02-28T02:19:55.860Z,24.73
2019-02-28T02:20:31.465Z,23.73
2019-02-28T02:21:06.940Z,27.93
2019-02-28T02:21:42.332Z,23.87
2019-02-28T02:22:17.734Z,26.73
2019-02-28T02:22:53.915Z,36.07
2019-02-28T02:23:29.590Z,24.10
2019-02-28T02:24:05.098Z,25.07
2019-02-28T02:24:40.494Z,26.00
2019-02-28T02:25:15.985Z,25.47
2019-02-28T02:25:51.378Z,23.57
2019-02-28T02:26:26.815Z,26.20
2019-02-28T02:27:02.482Z,26.73
2019-02-28T02:27:38.174Z,25.60
2019-02-28T02:28:13.841Z,26.70
2019-02-28T02:28:49.248Z,24.17
2019-02-28T02:29:24.638Z,23.17
2019-02-28T02:30:00.163Z,27.07
2019-02-28T02:30:35.988Z,23.67
2019-02-28T02:31:11.398Z,24.20
2019-02-28T02:31:46.819Z,26.37
2019-02-28T02:32:22.176Z,22.93
2019-02-28T02:32:58.168Z,26.90
2019-02-28T02:33:33.959Z,24.87
2019-02-28T02:34:10.465Z,23.27
2019-02-28T02:34:45.835Z,23.13
2019-02-28T02:35:22.839Z,26.37
2019-02-28T02:35:58.214Z,25.53
2019-02-28T02:36:35.667Z,25.47
2019-02-28T02:37:11.337Z,26.33
2019-02-28T02:37:46.745Z,30.10
2019-02-28T02:38:22.930Z,28.23
2019-02-28T02:38:58.336Z,26.70
2019-02-28T02:39:34.744Z,26.10
2019-02-28T02:40:10.593Z,25.17
2019-02-28T02:40:46.087Z,26.37
2019-02-28T02:41:21.774Z,25.73
2019-02-28T02:41:57.187Z,24.63
2019-02-28T02:42:32.764Z,26.27
2019-02-28T02:43:08.172Z,27.43
2019-02-28T02:43:43.609Z,30.13
2019-02-28T02:44:19.049Z,23.73
2019-02-28T02:44:54.454Z,26.07
2019-02-28T02:45:30.148Z,25.77
2019-02-28T02:46:05.593Z,27.60
2019-02-28T02:46:40.992Z,32.20
2019-02-28T02:47:16.394Z,26.80
2019-02-28T02:47:52.094Z,27.47
2019-02-28T02:48:27.764Z,30.00
2019-02-28T02:49:03.230Z,26.90
2019-02-28T02:49:38.930Z,24.77
2019-02-28T02:50:15.001Z,25.60
2019-02-28T02:50:51.143Z,24.97
2019-02-28T02:51:26.615Z,26.03
2019-02-28T02:52:03.676Z,25.43
2019-02-28T02:52:39.115Z,23.87
2019-02-28T02:53:14.538Z,25.20
2019-02-28T02:53:49.969Z,30.53
2019-02-28T02:54:25.657Z,28.07
2019-02-28T02:55:01.150Z,24.10
2019-02-28T02:55:36.817Z,25.47
2019-02-28T02:56:12.888Z,26.27
2019-02-28T02:56:48.602Z,27.43
2019-02-28T02:57:24.033Z,28.87
2019-02-28T02:58:00.133Z,25.07
2019-02-28T02:58:35.690Z,24.03
2019-02-28T02:59:11.437Z,25.63
2019-02-28T02:59:47.113Z,25.07
2019-02-28T03:00:22.566Z,24.17
2019-02-28T03:00:57.986Z,29.73
2019-02-28T03:01:33.511Z,28.13
2019-02-28T03:02:08.901Z,28.73
2019-02-28T03:02:44.354Z,31.17
2019-02-28T03:03:20.326Z,25.00
2019-02-28T03:03:55.959Z,29.03
2019-02-28T03:04:31.726Z,24.37
2019-02-28T03:05:07.735Z,26.53
2019-02-28T03:05:43.131Z,26.67
2019-02-28T03:06:18.552Z,30.60
2019-02-28T03:06:54.255Z,27.33
2019-02-28T03:07:29.670Z,29.30
2019-02-28T03:08:05.088Z,28.30
2019-02-28T03:08:40.496Z,28.90
2019-02-28T03:09:15.892Z,27.63
2019-02-28T03:09:51.278Z,27.40
2019-02-28T03:10:27.131Z,27.33
2019-02-28T03:11:02.735Z,25.33
2019-02-28T03:11:38.150Z,30.27
2019-02-28T03:12:13.542Z,25.53
2019-02-28T03:12:48.940Z,31.23
2019-02-28T03:13:24.365Z,28.27
2019-02-28T03:14:00.370Z,29.83
2019-02-28T03:14:36.358Z,32.20
2019-02-28T03:15:12.712Z,25.00
2019-02-28T03:15:48.129Z,26.30
2019-02-28T03:16:23.546Z,26.07
2019-02-28T03:16:59.917Z,26.87
2019-02-28T03:17:35.313Z,25.77
2019-02-28T03:18:10.721Z,26.67
2019-02-28T03:18:46.132Z,27.83
2019-02-28T03:19:21.579Z,25.27
2019-02-28T03:19:56.972Z,27.50
2019-02-28T03:20:32.380Z,26.93
2019-02-28T03:21:08.048Z,26.97
2019-02-28T03:21:51.301Z,28.13
2019-02-28T03:22:28.381Z,25.97
2019-02-28T03:23:02.133Z,27.10
2019-02-28T03:23:40.206Z,27.60
2019-02-28T03:24:15.140Z,27.47
2019-02-28T03:24:51.099Z,29.10
2019-02-28T03:25:28.302Z,24.47
2019-02-28T03:26:07.026Z,27.97
2019-02-28T03:26:43.244Z,28.13
2019-02-28T03:27:20.046Z,26.93
2019-02-28T03:27:56.804Z,23.63
2019-02-28T03:28:33.353Z,26.20
2019-02-28T03:29:09.112Z,27.60
2019-02-28T03:29:44.888Z,29.83
2019-02-28T03:30:27.800Z,28.30
2019-02-28T03:30:57.526Z,27.87
2019-02-28T03:31:33.227Z,25.70
2019-02-28T03:32:08.900Z,28.17
2019-02-28T03:32:45.341Z,25.87
2019-02-28T03:33:27.371Z,27.03
2019-02-28T03:34:10.440Z,25.17
2019-02-28T03:34:35.196Z,26.37
2019-02-28T03:35:10.717Z,26.07
2019-02-28T03:35:46.140Z,26.80
2019-02-28T03:36:21.559Z,23.93
2019-02-28T03:36:57.688Z,27.10
2019-02-28T03:37:34.623Z,26.07
2019-02-28T03:38:12.450Z,24.40
2019-02-28T03:38:49.587Z,24.23
2019-02-28T03:39:25.796Z,27.10
2019-02-28T03:40:04.403Z,30.33
2019-02-28T03:40:40.220Z,27.23
2019-02-28T03:41:17.753Z,28.17
2019-02-28T03:41:53.130Z,27.13
2019-02-28T03:42:30.113Z,25.27
2019-02-28T03:43:06.996Z,28.00
2019-02-28T03:43:44.068Z,23.10
2019-02-28T03:44:21.636Z,24.10
2019-02-28T03:44:58.196Z,26.13
2019-02-28T03:45:35.252Z,25.37
2019-02-28T03:46:11.626Z,28.07
2019-02-28T03:46:47.945Z,26.23
2019-02-28T03:47:24.199Z,28.17
2019-02-28T03:48:00.010Z,25.93
2019-02-28T03:48:36.292Z,32.40
2019-02-28T03:49:12.631Z,29.87
2019-02-28T03:49:49.864Z,21.87
2019-02-28T03:50:26.482Z,25.40
2019-02-28T03:51:02.466Z,23.73
2019-02-28T03:51:38.310Z,27.27
2019-02-28T03:52:13.707Z,25.03
2019-02-28T03:52:49.379Z,26.83
2019-02-28T03:53:24.780Z,28.30
2019-02-28T03:54:00.197Z,26.47
2019-02-28T03:54:35.899Z,23.80
2019-02-28T03:55:11.719Z,27.90
2019-02-28T03:55:47.107Z,32.07
2019-02-28T03:56:22.510Z,29.20
2019-02-28T03:56:58.183Z,25.93
2019-02-28T03:57:34.771Z,24.23
2019-02-28T03:58:10.161Z,25.53
2019-02-28T03:58:45.860Z,27.07
2019-02-28T03:59:21.357Z,30.10
2019-02-28T03:59:57.091Z,25.90
2019-02-28T04:00:34.080Z,28.33
2019-02-28T04:01:10.332Z,28.07
2019-02-28T04:01:46.560Z,25.77
2019-02-28T04:02:22.529Z,24.50
2019-02-28T04:02:59.095Z,26.00
2019-02-28T04:03:34.840Z,27.87
2019-02-28T04:04:12.231Z,26.87
2019-02-28T04:04:50.156Z,26.00
2019-02-28T04:05:27.978Z,26.20
2019-02-28T04:06:03.876Z,26.23
2019-02-28T04:06:41.000Z,26.17
2019-02-28T04:07:17.076Z,27.80
2019-02-28T04:07:54.758Z,23.40
2019-02-28T04:08:30.735Z,28.20
2019-02-28T04:09:08.471Z,24.30
2019-02-28T04:09:45.362Z,29.50
2019-02-28T04:10:22.441Z,28.97
2019-02-28T04:10:58.482Z,26.90
2019-02-28T04:11:34.149Z,23.93
2019-02-28T04:12:09.567Z,28.63
2019-02-28T04:12:46.900Z,26.57
2019-02-28T04:13:22.520Z,24.07
2019-02-28T04:13:57.926Z,22.13
2019-02-28T04:14:34.387Z,24.63
2019-02-28T04:15:11.430Z,26.93
2019-02-28T04:16:07.780Z,26.63
2019-02-28T04:16:24.443Z,25.03
2019-02-28T04:17:00.130Z,25.60
2019-02-28T04:17:35.517Z,26.07
2019-02-28T04:18:10.910Z,29.40
2019-02-28T04:18:46.859Z,23.70
2019-02-28T04:19:23.046Z,28.57
2019-02-28T04:20:00.647Z,29.27
2019-02-28T04:20:37.867Z,24.90
2019-02-28T04:21:13.370Z,24.93
2019-02-28T04:21:48.772Z,27.57
2019-02-28T04:22:24.174Z,29.40
2019-02-28T04:23:00.322Z,22.80
2019-02-28T04:23:36.934Z,25.10
2019-02-28T04:24:13.821Z,26.57
2019-02-28T04:24:49.572Z,26.40
2019-02-28T04:25:25.205Z,24.93
2019-02-28T04:26:00.680Z,24.00
2019-02-28T04:26:36.053Z,27.80
2019-02-28T04:27:11.464Z,26.83
2019-02-28T04:27:46.846Z,27.57
2019-02-28T04:28:22.258Z,29.57
2019-02-28T04:29:00.503Z,28.10
2019-02-28T04:29:36.678Z,31.00
2019-02-28T04:30:12.579Z,29.40
2019-02-28T04:30:49.326Z,27.27
2019-02-28T04:31:25.063Z,25.30
2019-02-28T04:32:00.821Z,25.13
2019-02-28T04:32:36.478Z,26.93
2019-02-28T04:33:11.871Z,27.13
2019-02-28T04:33:47.365Z,30.43
2019-02-28T04:34:23.286Z,25.23
2019-02-28T04:34:58.726Z,28.77
2019-02-28T04:35:34.113Z,26.70
2019-02-28T04:36:09.516Z,26.47
2019-02-28T04:36:44.919Z,27.20
2019-02-28T04:37:20.307Z,29.13
2019-02-28T04:37:55.986Z,25.43
2019-02-28T04:38:31.391Z,29.27
2019-02-28T04:39:07.415Z,26.37
2019-02-28T04:39:42.800Z,26.33
2019-02-28T04:40:18.252Z,25.47
2019-02-28T04:40:53.627Z,28.77
2019-02-28T04:41:32.400Z,27.63
2019-02-28T04:42:06.431Z,27.50
2019-02-28T04:42:41.839Z,24.73
2019-02-28T04:43:17.566Z,31.23
2019-02-28T04:43:52.992Z,26.40
2019-02-28T04:44:28.638Z,26.03
2019-02-28T04:45:04.483Z,27.03
2019-02-28T04:45:39.906Z,26.97
2019-02-28T04:46:15.303Z,27.03
2019-02-28T04:46:50.704Z,24.00
2019-02-28T04:47:26.405Z,26.53
2019-02-28T04:48:01.821Z,28.57
2019-02-28T04:48:37.201Z,24.87
2019-02-28T04:49:12.626Z,27.27
2019-02-28T04:49:48.036Z,26.80
2019-02-28T04:50:24.360Z,24.73
2019-02-28T04:51:02.255Z,26.53
2019-02-28T04:51:37.113Z,27.90
2019-02-28T04:52:14.002Z,27.47
2019-02-28T04:52:49.917Z,24.90
2019-02-28T04:53:25.413Z,25.93
2019-02-28T04:54:00.827Z,27.53
2019-02-28T04:54:36.256Z,25.77
2019-02-28T04:55:11.776Z,25.73
2019-02-28T04:55:47.189Z,25.73
2019-02-28T04:56:22.583Z,25.43
2019-02-28T04:56:57.981Z,26.13
2019-02-28T04:57:33.638Z,24.97
2019-02-28T04:58:09.283Z,24.03
2019-02-28T04:58:44.682Z,26.03
2019-02-28T04:59:20.647Z,24.67
2019-02-28T04:59:56.053Z,26.67
2019-02-28T05:00:31.494Z,29.23
2019-02-28T05:01:09.209Z,26.53
2019-02-28T05:01:46.174Z,25.30
2019-02-28T05:02:21.392Z,25.10
2019-02-28T05:02:56.792Z,29.93
2019-02-28T05:03:32.243Z,27.37
2019-02-28T05:04:07.896Z,24.83
2019-02-28T05:04:43.325Z,25.63
2019-02-28T05:05:19.022Z,25.90
2019-02-28T05:05:54.441Z,24.77
2019-02-28T05:06:30.371Z,24.60
2019-02-28T05:07:06.129Z,29.30
2019-02-28T05:07:42.129Z,25.73
2019-02-28T05:08:17.571Z,27.73
2019-02-28T05:08:52.973Z,25.83
2019-02-28T05:09:28.408Z,25.20
2019-02-28T05:10:03.823Z,24.03
2019-02-28T05:10:39.332Z,26.20
2019-02-28T05:11:14.738Z,23.63
2019-02-28T05:11:50.396Z,23.80
2019-02-28T05:12:25.825Z,26.47
2019-02-28T05:13:01.523Z,26.37
2019-02-28T05:13:36.968Z,23.83
2019-02-28T05:14:12.370Z,30.73
2019-02-28T05:14:48.104Z,29.10
2019-02-28T05:15:23.494Z,24.90
2019-02-28T05:15:59.226Z,32.03
2019-02-28T05:16:34.647Z,24.37
2019-02-28T05:17:10.061Z,26.63
2019-02-28T05:17:45.713Z,29.23
2019-02-28T05:18:21.540Z,27.07
2019-02-28T05:18:58.286Z,24.37
2019-02-28T05:19:35.724Z,31.20
2019-02-28T05:20:12.292Z,22.87
2019-02-28T05:20:47.941Z,25.70
2019-02-28T05:21:23.362Z,27.70
2019-02-28T05:21:58.771Z,27.17
2019-02-28T05:22:34.285Z,26.23
2019-02-28T05:23:09.691Z,25.23
2019-02-28T05:23:45.081Z,28.80
2019-02-28T05:24:20.473Z,28.47
2019-02-28T05:24:55.889Z,26.30
2019-02-28T05:25:31.293Z,23.43
2019-02-28T05:26:06.713Z,25.70
2019-02-28T05:26:42.094Z,25.60
2019-02-28T05:27:17.492Z,28.83
2019-02-28T05:27:52.877Z,24.23
2019-02-28T05:28:28.306Z,27.93
2019-02-28T05:29:03.718Z,27.90
2019-02-28T05:29:39.375Z,24.87
2019-02-28T05:30:18.140Z,23.43
2019-02-28T05:30:53.732Z,31.17
2019-02-28T05:31:29.213Z,23.87
2019-02-28T05:32:04.872Z,22.40
2019-02-28T05:32:40.539Z,24.13
2019-02-28T05:33:16.278Z,25.80
2019-02-28T05:33:51.685Z,27.00
2019-02-28T05:34:27.351Z,25.13
2019-02-28T05:35:02.773Z,27.03
2019-02-28T05:35:38.222Z,25.20
2019-02-28T05:36:13.602Z,24.53
2019-02-28T05:36:49.252Z,26.90
2019-02-28T05:37:24.925Z,23.30
2019-02-28T05:38:00.440Z,25.03
2019-02-28T05:38:36.070Z,25.20
2019-02-28T05:39:11.502Z,25.77
2019-02-28T05:39:47.229Z,28.93
2019-02-28T05:40:22.645Z,26.00
2019-02-28T05:40:58.378Z,24.60
2019-02-28T05:41:36.174Z,26.80
2019-02-28T05:42:11.224Z,26.83
2019-02-28T05:42:46.865Z,25.43
2019-02-28T05:43:22.272Z,26.27
2019-02-28T05:43:57.688Z,26.30
2019-02-28T05:44:33.377Z,26.97
2019-02-28T05:45:11.306Z,28.17
2019-02-28T05:45:49.577Z,26.50
2019-02-28T05:46:24.594Z,27.80
2019-02-28T05:47:00.082Z,23.67
2019-02-28T05:47:45.816Z,27.53
2019-02-28T05:48:12.599Z,27.37
2019-02-28T05:48:47.989Z,23.60
2019-02-28T05:49:23.381Z,25.60
2019-02-28T05:49:59.118Z,25.23
2019-02-28T05:50:34.534Z,29.43
2019-02-28T05:51:10.058Z,25.57
2019-02-28T05:51:46.625Z,26.63
2019-02-28T05:52:22.061Z,25.33
2019-02-28T05:52:57.549Z,24.53
2019-02-28T05:53:33.007Z,26.10
2019-02-28T05:54:08.739Z,24.83
2019-02-28T05:54:44.145Z,24.90
2019-02-28T05:55:24.621Z,24.77
2019-02-28T05:55:59.710Z,24.00
2019-02-28T05:56:34.075Z,25.37
2019-02-28T05:57:09.589Z,24.57
2019-02-28T05:57:45.059Z,27.93
2019-02-28T05:58:20.962Z,29.60
2019-02-28T05:58:56.355Z,26.57
2019-02-28T05:59:31.773Z,24.73
2019-02-28T06:00:07.888Z,23.73
2019-02-28T06:00:43.560Z,27.57
2019-02-28T06:01:18.989Z,27.13
2019-02-28T06:01:54.659Z,24.93
2019-02-28T06:02:30.189Z,25.23
2019-02-28T06:03:05.597Z,26.57
2019-02-28T06:03:41.011Z,25.27
2019-02-28T06:04:16.990Z,27.00
2019-02-28T06:04:52.514Z,29.63
2019-02-28T06:05:28.005Z,22.87
2019-02-28T06:06:03.753Z,31.63
2019-02-28T06:06:39.164Z,27.87
2019-02-28T06:07:14.569Z,25.83
2019-02-28T06:07:50.029Z,25.00
2019-02-28T06:08:25.469Z,23.53
2019-02-28T06:09:01.363Z,29.27
2019-02-28T06:09:37.051Z,26.70
2019-02-28T06:10:12.448Z,23.17
2019-02-28T06:10:47.849Z,26.17
2019-02-28T06:11:23.532Z,23.80
2019-02-28T06:11:59.271Z,24.93
2019-02-28T06:12:34.957Z,29.37
2019-02-28T06:13:10.379Z,25.73
2019-02-28T06:13:45.761Z,26.33
2019-02-28T06:14:26.692Z,25.60
2019-02-28T06:15:02.196Z,24.97
2019-02-28T06:15:37.127Z,20.50
2019-02-28T06:16:13.051Z,25.97
2019-02-28T06:16:48.478Z,29.83
2019-02-28T06:17:24.141Z,28.10
2019-02-28T06:17:59.601Z,25.67
2019-02-28T06:18:34.994Z,22.77
2019-02-28T06:19:10.383Z,25.07
2019-02-28T06:19:49.321Z,26.47
2019-02-28T06:20:25.017Z,30.13
2019-02-28T06:21:00.753Z,27.47
2019-02-28T06:21:36.476Z,23.83
2019-02-28T06:22:11.887Z,26.43
2019-02-28T06:22:47.594Z,28.03
2019-02-28T06:23:23.243Z,24.50
2019-02-28T06:23:58.947Z,24.00
2019-02-28T06:24:34.670Z,28.07
2019-02-28T06:25:10.369Z,24.17
2019-02-28T06:25:45.792Z,27.77
2019-02-28T06:26:21.213Z,25.80
2019-02-28T06:26:57.045Z,28.80
2019-02-28T06:27:41.240Z,26.33
2019-02-28T06:28:09.496Z,26.50
2019-02-28T06:28:44.909Z,26.80
2019-02-28T06:29:20.304Z,26.57
2019-02-28T06:29:55.717Z,27.43
2019-02-28T06:30:31.461Z,26.97
2019-02-28T06:31:07.165Z,21.60
2019-02-28T06:31:45.516Z,25.50
2019-02-28T06:32:23.284Z,25.60
2019-02-28T06:32:59.072Z,27.37
2019-02-28T06:33:34.434Z,24.37
2019-02-28T06:34:10.160Z,26.00
2019-02-28T06:34:45.549Z,26.97
2019-02-28T06:35:21.208Z,26.13
2019-02-28T06:35:56.919Z,33.23
2019-02-28T06:36:32.595Z,25.33
2019-02-28T06:37:08.248Z,27.17
2019-02-28T06:37:43.656Z,25.60
2019-02-28T06:38:19.915Z,25.57
2019-02-28T06:38:55.551Z,24.20
2019-02-28T06:39:31.553Z,24.67
2019-02-28T06:40:08.380Z,26.90
2019-02-28T06:40:43.807Z,27.47
2019-02-28T06:41:19.497Z,27.53
2019-02-28T06:41:55.003Z,24.00
2019-02-28T06:42:30.693Z,30.00
2019-02-28T06:43:06.352Z,24.27
2019-02-28T06:43:44.245Z,24.07
2019-02-28T06:44:19.181Z,25.43
2019-02-28T06:44:54.668Z,27.27
2019-02-28T06:45:30.091Z,27.67
2019-02-28T06:46:08.547Z,28.60
2019-02-28T06:46:43.438Z,27.07
2019-02-28T06:47:18.963Z,31.93
2019-02-28T06:47:54.632Z,27.03
2019-02-28T06:48:30.172Z,27.60
2019-02-28T06:49:07.151Z,26.10
2019-02-28T06:49:42.562Z,27.10
2019-02-28T06:50:18.821Z,27.83
2019-02-28T06:50:54.213Z,27.57
2019-02-28T06:51:29.946Z,25.77
2019-02-28T06:52:05.656Z,23.87
2019-02-28T06:52:41.441Z,28.67
2019-02-28T06:53:16.856Z,23.93
2019-02-28T06:53:52.648Z,25.07
2019-02-28T06:54:28.078Z,25.37
2019-02-28T06:55:04.445Z,31.97
2019-02-28T06:55:47.676Z,27.57
2019-02-28T06:56:23.219Z,27.80
2019-02-28T06:56:58.789Z,25.60
2019-02-28T06:57:34.281Z,26.37
2019-02-28T06:58:09.746Z,24.10
2019-02-28T06:58:45.109Z,27.53
2019-02-28T06:59:20.845Z,28.03
2019-02-28T06:59:56.274Z,26.83
2019-02-28T07:00:31.675Z,26.53
2019-02-28T07:01:07.334Z,24.90
2019-02-28T07:01:42.755Z,29.70
2019-02-28T07:02:18.421Z,28.97
2019-02-28T07:02:54.189Z,27.37
2019-02-28T07:03:29.612Z,24.87
2019-02-28T07:04:05.301Z,27.53
2019-02-28T07:04:40.693Z,25.63
2019-02-28T07:05:16.091Z,25.77
2019-02-28T07:05:51.606Z,31.87
2019-02-28T07:06:27.350Z,24.53
2019-02-28T07:07:02.785Z,25.73
2019-02-28T07:07:38.204Z,22.23
2019-02-28T07:08:13.927Z,28.07
2019-02-28T07:08:49.405Z,27.47
2019-02-28T07:09:25.362Z,28.20
2019-02-28T07:10:01.935Z,23.53
2019-02-28T07:10:37.868Z,25.53
2019-02-28T07:11:13.360Z,25.60
2019-02-28T07:11:51.283Z,26.10
2019-02-28T07:12:29.543Z,25.77
2019-02-28T07:13:04.635Z,26.43
2019-02-28T07:13:40.470Z,25.30
2019-02-28T07:14:15.876Z,24.53
2019-02-28T07:14:51.366Z,26.03
2019-02-28T07:15:26.790Z,28.00
2019-02-28T07:16:04.303Z,31.90
2019-02-28T07:16:40.122Z,27.60
2019-02-28T07:17:15.627Z,23.27
2019-02-28T07:17:51.288Z,25.17
2019-02-28T07:18:26.767Z,24.13
2019-02-28T07:19:02.199Z,27.20
2019-02-28T07:19:37.641Z,26.00
2019-02-28T07:20:13.847Z,26.23
2019-02-28T07:20:49.526Z,27.87
2019-02-28T07:21:25.198Z,25.03
2019-02-28T07:22:00.665Z,28.67
2019-02-28T07:22:36.028Z,28.37
2019-02-28T07:23:11.424Z,24.93
2019-02-28T07:23:46.829Z,26.93
2019-02-28T07:24:22.236Z,26.83
2019-02-28T07:24:57.940Z,28.83
2019-02-28T07:25:33.446Z,27.10
2019-02-28T07:26:08.858Z,31.27
2019-02-28T07:26:44.558Z,27.30
2019-02-28T07:27:19.995Z,27.70
2019-02-28T07:27:55.425Z,29.07
2019-02-28T07:28:36.196Z,28.53
2019-02-28T07:29:11.156Z,27.97
2019-02-28T07:29:45.062Z,26.57
2019-02-28T07:30:20.735Z,26.50
2019-02-28T07:30:56.228Z,27.40
2019-02-28T07:31:32.086Z,25.70
2019-02-28T07:32:07.667Z,30.27
2019-02-28T07:32:43.101Z,27.90
2019-02-28T07:33:18.853Z,23.70
2019-02-28T07:33:54.593Z,27.90
2019-02-28T07:34:30.254Z,24.60
2019-02-28T07:35:06.212Z,26.80
2019-02-28T07:35:41.942Z,25.77
2019-02-28T07:36:17.360Z,27.80
2019-02-28T07:36:53.409Z,31.63
2019-02-28T07:37:28.929Z,28.23
2019-02-28T07:38:04.345Z,23.47
2019-02-28T07:38:39.736Z,29.10
2019-02-28T07:39:15.154Z,26.60
2019-02-28T07:39:50.632Z,28.70
2019-02-28T07:40:26.119Z,28.87
2019-02-28T07:41:01.797Z,32.87
2019-02-28T07:41:37.244Z,28.13
2019-02-28T07:42:12.900Z,29.97